Colorado AWOS List, Phone Numbers, Maps

USA |  
| Search AWOS

Rocky Mountain States: Montana | Wyoming | Colorado | New Mexico

Complete weather reports: Colorado

Legend: KFNL = METAR available Follow your local AWOS on AV Mobile = METAR available on AV Mobile
Station Colorado Location Frequency Phone
KAKOFAA ID AKO, ASOS, KAKO 231253Z AUTO 22006KT 10SM SCT110 20/16 A3005 RMK AO2 SLP110 T02000156 Follow KAKO on AV Mobile COLORADO PLAINS REGIONAL 135.475 970-345-2320
KALSFAA ID ALS, ASOS, KALS 231252Z AUTO 00000KT 10SM CLR 14/09 A3035 RMK AO2 SLP174 T01390094 Follow KALS on AV Mobile SAN LUIS VALLEY REGIONAL 135.175 719-589-5669
KASEFAA ID ASE, ASOS, KASE 231253Z AUTO 21005KT 10SM CLR 11/07 A3039 RMK AO2 SLP169 T01110072 Follow KASE on AV Mobile ASPEN-PITKIN COUNTY AIRPORT 120.400 970-925-9168
KBKFFAA ID BKF, KBKF 231158Z 20008KT 10SM FEW100 SCT220 18/08 A3013 Follow KBKF on AV Mobile Aurora, Buckley Air Force Base Airport
K7BMFAA ID 7BM, AWOS-3, K7BM 231235Z AUTO 27007KT 240V300 10SM CLR 16/03 A3051 RMK AO2 Follow K7BM on AV Mobile Cottonwood Pass 132.050 303-512-4919
KBDUFAA ID BDU, AWOS-3, KBDU 231235Z AUTO 00000KT 10SM CLR 18/11 A3009 RMK AO2 Follow KBDU on AV Mobile Boulder Municipal Airport 118.825 303-541-9540
KAEJFAA ID AEJ, AWOS-3, KAEJ 231235Z AUTO 33003KT 10SM CLR 13/07 A3038 RMK AO2 T01300065 Follow KAEJ on AV Mobile Central Colorado Regional Airport 132.925 719-395-2599
KITRFAA ID ITR, ASOS, KITR 231253Z AUTO 11003KT 10SM CLR 20/16 A3000 RMK AO2 SLP092 T02000161 $ Follow KITR on AV Mobile Kit Carson County Airport 135.225 719-346-7036
K1V6FAA ID 1V6, AWOS-3, K1V6 231225Z AUTO 10SM CLR 22/08 A3012 RMK AO2 Follow K1V6 on AV Mobile CANON CITY 120.025
KAFFFAA ID AFF, KAFF 231158Z 36006KT 10SM CLR 14/07 A3020 RMK AO2A SLP133 70004 T01440068 10221 20143 55002 Follow KAFF on AV Mobile Air Force Academy
KCOSFAA ID COS, ASOS, KCOS 231154Z 33011KT 10SM FEW160 FEW180 SCT240 23/06 A3017 Follow KCOS on AV Mobile COLORADO SPRINGS MUNI 125.000 719-637-9696
KFLYFAA ID FLY, AWOS-3PT, KFLY 231235Z AUTO 32008KT 10SM CLR 21/04 A3023 RMK AO2 T02060044 Follow KFLY on AV Mobile Meadowlake Airport, Peyton, CO 118.450 719-683-5371
KCCUFAA ID CCU, AWOS-3, KCCU 231236Z AUTO 27003KT 10SM CLR 12/03 A3069 RMK AO2 Follow KCCU on AV Mobile Copper Mountain, Red Cliff Pass 118.075 970-968-1715
KCEZFAA ID CEZ, ASOS, KCEZ 231253Z AUTO 00000KT 10SM CLR 14/08 A3024 RMK AO2 SLP158 T01440083 Follow KCEZ on AV Mobile CORTEZ MONTEZUMA COUNTY AIRPORT 135.625 970-564-0193
KCAGFAA ID CAG, ASOS, KCAG 231253Z AUTO 00000KT 10SM CLR 12/08 A3027 RMK AO2 SLP182 T01220078 Follow KCAG on AV Mobile CRAIG MOFFAT AIRPORT 135.425 970-824-2373
KRCVFAA ID RCV, AWOS-3PT, KRCV 231230Z AUTO 27010KT 10SM CLR 14/07 A3038 RMK AO2 T01390066 Follow KRCV on AV Mobile DEL NORTE 118.275 719-657-9017
KAJZFAA ID AJZ, AWOS-3, KAJZ 231235Z AUTO 04005KT 5SM HZ CLR 17/12 A3023 RMK AO2 T01660120 Follow KAJZ on AV Mobile Blake Field Airport 134.000 970-874-3251
KDNRICAO ID KDNR Denver / Stapleton International, Co.
KAPAFAA ID APA, ASOS, KAPA 231253Z 22004KT 10SM FEW100 FEW150 SCT220 21/07 A3015 RMK AO2 SLP130 T02060072 Follow KAPA on AV Mobile DENVER CENTENNIAL AIRPORT 120.300 303-706-9098
KDENFAA ID DEN, ASOS, KDEN 231253Z 23009KT 10SM FEW150 SCT220 22/08 A3010 RMK AO2 SLP102 T02170083 Follow KDEN on AV Mobile DENVER INTERNATIONAL AIRPORT 125.600 303-342-0838
KFTGFAA ID FTG, AWOS-3, KFTG 231250Z 22007KT 10SM FEW180 SCT220 23/08 A3012 Follow KFTG on AV Mobile Front Range Airport 119.025 303-261-9104
KBJCFAA ID BJC, AWOS-3, KBJC 231246Z 00000KT 40SM SCT100 22/06 A3013 Follow KBJC on AV Mobile Rocky Mountain Metro Airport 126.250 720-887-8067
K4V5ICAO ID K4V5 Durango Aviation Weather Reporting Station
KDROFAA ID DRO, ASOS, KDRO 231253Z AUTO 32004KT 10SM CLR 15/08 A3029 RMK AO2 SLP162 T01500083 Follow KDRO on AV Mobile DURANGO-LA PLATA COUNTY AIRPORT 120.625 970-259-3579
KEGEFAA ID EGE, AWOS-3, KEGE 231250Z 00000KT 10SM CLR 12/08 A3036 Follow KEGE on AV Mobile Eagle County Regional 135.575 970-524-7386
CO90FAA ID CO90, ASOS, KGWR 231315Z AUTO 10006KT 10SM CLR 23/21 A2981 RMK AO1 Follow  on AV Mobile USAF Academy Bullseye Aux Airstrip 118.325 719-683-3346
K0COFAA ID 0CO, AWOS-3, K0CO 231239Z AUTO 34016G19KT 10SM BKN100 06/M01 A3071 RMK AO2 Follow K0CO on AV Mobile EMPIRE 134.325
KEIKFAA ID EIK, AWOS-3, KEIK 231235Z AUTO 00000KT 10SM CLR 15/12 A3008 RMK AO2 T01510120 Follow KEIK on AV Mobile Erie Municipal Airport 133.825 303-604-4339
KFCSFAA ID FCS, KFCS 231158Z AUTO 32006KT 10SM CLR 18/07 A3013 RMK AO2 SLP137 70003 T01830071 10214 20176 55001 $ Follow KFCS on AV Mobile Fort Carson
KFCLICAO ID KFCL Fort Collins Supplementary Aviation Weather Reporting Station
KFNLFAA ID FNL, AWOS-3, KFNL 231235Z AUTO 00000KT 10SM CLR A3009 RMK AO1 Follow KFNL on AV Mobile Fort Collins/Loveland, Fort Collins-Loveland Municipal Airport 135.075 970-669-9187
KFMMFAA ID FMM, AWOS-3, KFMM 231235Z AUTO 00000KT 10SM SCT120 20/17 A3005 RMK AO2 T01980168 Follow KFMM on AV Mobile Fort Morgan Municipal Airport 132.950 970-867-4823
KGNBFAA ID GNB, AWOS-3PT Granby-Grand County Airport 119.925 970-887-1803
KGJTFAA ID GJT, ASOS, KGJT 231253Z 12006KT 10SM CLR 20/12 A3016 RMK AO2 SLP135 T02000122 Follow KGJT on AV Mobile GRAND JUNCTION WALKER FIELD 118.550 970-245-7881
KGXYFAA ID GXY, AWOS-3, KGXY 231235Z AUTO 00000KT 10SM CLR 18/17 A3007 RMK AO1 Follow KGXY on AV Mobile Greeley, Greeley-Weld County Airport 135.175 970-352-3511
K2V9ICAO ID K2V9 Gunnison Aviation Weather Reporting Station
KGUCFAA ID GUC, AWOS-3, KGUC 231235Z AUTO 00000KT 10SM CLR 08/06 A3045 RMK AO1 Follow KGUC on AV Mobile Gunnison, Gunnison-Crested Butte Regional Airport 135.075 970-641-3240
KHDNFAA ID HDN, AWOS-3, KHDN 231235Z AUTO 11008KT 10SM CLR 13/06 A3028 RMK AO1 Follow KHDN on AV Mobile Hayden, Yampa Valley Airport 119.275 970-276-3690
KHEQFAA ID HEQ, AWOS-3, KHEQ 231235Z AUTO 28006KT CLR 22/18 A3000 RMK AO2 PWINO Follow KHEQ on AV Mobile Holyoke Airport 119.275 970-854-3679
K20VFAA ID 20V, AWOS-3, K20V 231235Z AUTO 00000KT 10SM CLR 08/06 A3041 RMK AO2 Follow K20V on AV Mobile Kremmling, Mc Elroy Airfield 118.425 970-724-9659
KLHXFAA ID LHX, ASOS, KLHX 231253Z AUTO 27011KT 10SM CLR 23/11 A3000 RMK AO2 SLP082 T02330106 Follow KLHX on AV Mobile LA JUNTA MUNICIPAL AIRPORT 135.525 719-384-5961
KVTPFAA ID VTP, AWOS-3, KVTP 231229Z AUTO 19008KT 100V230 10SM CLR 11/05 A3050 RMK AO2 Follow KVTP on AV Mobile La Veta Mountain, La Veta Pass 119.925 719-587-3120
KLAAFAA ID LAA, ASOS, KLAA 231253Z AUTO 00000KT 10SM CLR 23/14 A2995 RMK AO2 SLP079 T02280139 TSNO Follow KLAA on AV Mobile LAMAR MUNICIPAL AIRPORT 135.625 719-336-3854
KLXVFAA ID LXV, ASOS, KLXV 231253Z AUTO 05006KT 10SM CLR 07/04 A3052 RMK AO2 SLP182 T00670044 Follow KLXV on AV Mobile LEADVILLE LAKE CO 118.375 719-486-2735
KLICFAA ID LIC, ASOS, KLIC 231155Z AUTO VRB03KT 10SM CLR 16/09 A3009 RMK AO2 SLP103 T01560094 10239 20156 55006 Follow KLIC on AV Mobile LIMON MUNICIPAL AIRPORT 121.125 719-775-0515
KLMOFAA ID LMO, AWOS-3, KLMO 231234Z AUTO 00000KT 5SM HZ CLR 17/12 A3010 RMK AO2 T01650116 Follow KLMO on AV Mobile Vance Brand Airport 120.000 303-684-7545
KEEOFAA ID EEO, ASOS, KEEO 231253Z AUTO 10SM CLR 13/09 A3029 RMK AO2 SLP167 T01280089 Follow KEEO on AV Mobile MEEKER AIRPORT 135.525 970-878-5036
KMYPFAA ID MYP, AWOS-3, KMYP 231234Z AUTO 33010G17KT 10SM CLR 09/02 A3078 RMK AO2 Follow KMYP on AV Mobile Salida Mountain, Monarch Pass 124.175 719-539-4436
KMTJFAA ID MTJ, ASOS, KMTJ 231253Z AUTO 12005KT 10SM CLR 16/09 A3027 RMK AO2 SLP171 T01560094 Follow KMTJ on AV Mobile MONTROSE REGIONAL AIRPORT 135.225 970-249-1534
KMNHFAA ID MNH, AWOS-3, KMNH 231238Z AUTO 25006KT 10SM CLR 16/07 A3026 RMK AO2 Follow KMNH on AV Mobile Elbert Mountain, Monument Pass 134.375 303-648-3479
KCRVICAO ID KCRV Nederland Mountain, Corona Pass
KAIBFAA ID AIB, AWOS-3, KAIB 231235Z AUTO 15004KT 10SM CLR 14/09 A3029 RMK AO2 Follow KAIB on AV Mobile Hopkins Field Airport 132.525 970-864-2325
KPSOFAA ID PSO, AWOS-3, KPSO 231235Z AUTO 30003KT 10SM CLR 16/07 A3036 RMK AO2 T01610068 Follow KPSO on AV Mobile Stevens Field Airport 127.175 970-731-0365
KPEFICAO ID KPEF Peterson Air Force Base
KPUXICAO ID KPUX Pueblo NEXRAD
KPUBFAA ID PUB, ASOS, KPUB 231253Z 26008KT 10SM CLR 23/11 A3006 RMK AO2 SLP103 T02280106 Follow KPUB on AV Mobile PUEBLO MEMORIAL AIRPORT 125.250 719-948-2803
4V0FAA ID 4V0, AWOS-3PT, KGWR 231315Z AUTO 10006KT 10SM CLR 23/21 A2981 RMK AO1 Follow  on AV Mobile RANGELY 119.025 970-675-2339
K1V1ICAO ID K1V1 Rifle Aviation Weather Reporting Station
KRILFAA ID RIL, ASOS, KRIL 231253Z AUTO 00000KT 10SM CLR 16/11 A3024 RMK AO2 SLP181 T01560111 Follow KRIL on AV Mobile RIFLE GARFIELD COUNTY RGNL 135.275 970-625-2206
K04VFAA ID 04V, AWOS-3, K04V 231226Z AUTO 31007KT 10SM CLR 13/07 A3039 RMK AO2 Follow K04V on AV Mobile Saguache, Saguache Municipal Airport 118.625 719-655-2229
KS29ICAO ID KS29 Salida
KANKFAA ID ANK, AWOS-3, KANK 231235Z AUTO 30004KT 10SM CLR 15/09 A3043 RMK AO1 T01450085 Follow KANK on AV Mobile Harriet Alexander Field Airport 133.850 719-539-5268
KSPDICAO ID KSPD, KSPD 231156Z AUTO 23007KT 21/09 A3001 RMK AO1 SLP088 T02110094 10267 20211 56006 Follow KSPD on AV Mobile SPRINGFIELD COMANCHE NATL
KSBSFAA ID SBS, AWOS-3, KSBS 231235Z AUTO 00000KT 10SM CLR 09/07 A3031 RMK AO1 T00940071 Follow KSBS on AV Mobile Steamboat Springs 118.325 970-879-7794
KSTKFAA ID STK, AWOS-3, KSTK 231230Z AUTO 00000KT 10SM CLR 20/19 A3001 RMK AO2 Follow KSTK on AV Mobile Sterling Municipal Airport 118.525 970-526-3009
K5SMFAA ID 5SM, AWOS-3, K5SM 231232Z AUTO 00000KT 10SM CLR 15/03 A3062 RMK AO2 TSNO Follow K5SM on AV Mobile Sunlight 126.075 970-384-3380
KTEXFAA ID TEX, AWOS-3, KTEX 231235Z AUTO 13005KT 10SM CLR 11/06 A3051 RMK AO2 T01100062 Follow KTEX on AV Mobile Telluride, Telluride Regional Airport 118.325 970-728-1534
KTADFAA ID TAD, ASOS, KTAD 111454Z AUTO 27010KT 10SM CLR 29/M02 A2994 RMK AO2 SLP031 T02941022 51005 $ Follow KTAD on AV Mobile Trinidad, Perry Stokes Airport 119.025 719-845-1156
K33VFAA ID 33V, AWOS-3, K33V 231235Z AUTO 11006KT 10SM CLR 10/05 A3039 RMK AO2 Follow K33V on AV Mobile WALDEN 118.625 970-723-4513
4V1FAA ID 4V1, AWOS-3, KGWR 231315Z AUTO 10006KT 10SM CLR 23/21 A2981 RMK AO1 Follow  on AV Mobile Spanish Peaks Airfield 123.600 719-738-1053
K4BMFAA ID 4BM, AWOS-3, K4BM 231236Z AUTO 33006KT 280V350 10SM CLR 12/01 A3063 RMK AO2 Follow K4BM on AV Mobile Wilkerson Pass 132.3 303-512-4418
KC96ICAO ID KC96 Winter Park Resort
KCPWFAA ID CPW, AWOS-3, KCPW 231240Z AUTO 33003KT 10SM CLR 11/01 A3071 RMK AO2 Follow KCPW on AV Mobile Pagosa Springs, Wolf Creek Pass 121.125 970-264-2180
K2V5FAA ID 2V5, AWOS-3, K2V5 231215Z AUTO 20004KT 10SM CLR 21/17 A2998 RMK AO2 Follow K2V5 on AV Mobile Wray Municipal Airport 118.250 970-332-5930
2V6FAA ID 2V6, AWOS-3, KGWR 231315Z AUTO 10006KT 10SM CLR 23/21 A2981 RMK AO1 Follow  on AV Mobile YUMA 135.375 970-848-3007

Click on the AV Mobile icon AV Mobile icon by any station to follow that AWOS feed on AirportView.net Mobile.

Legend: Commercial service airport with AWOS Commercial Airport AWOSNon-Commercial service airport with AWOS Non-Commercial Airport AWOS
Airport AWOS - Click symbol for weather report Fort Morgan Municipal Airport KFMM 231235Z AUTO 00000KT 10SM SCT120 20/17 A3005 RMK AO2 T01980168 Hopkins Field Airport KAIB 231235Z AUTO 15004KT 10SM CLR 14/09 A3029 RMK AO2 Telluride, Telluride Regional Airport KTEX 231235Z AUTO 13005KT 10SM CLR 11/06 A3051 RMK AO2 T01100062 Greeley, Greeley-Weld County Airport KGXY 231235Z AUTO 00000KT 10SM CLR 18/17 A3007 RMK AO1 Front Range Airport KFTG 231250Z 22007KT 10SM FEW180 SCT220 23/08 A3012 Rocky Mountain Metro Airport KBJC 231246Z 00000KT 40SM SCT100 22/06 A3013 DENVER CENTENNIAL AIRPORT KAPA 231253Z 22004KT 10SM FEW100 FEW150 SCT220 21/07 A3015 RMK AO2 SLP130 T02060072 DENVER INTERNATIONAL AIRPORT KDEN 231253Z 23009KT 10SM FEW150 SCT220 22/08 A3010 RMK AO2 SLP102 T02170083 Fort Collins/Loveland, Fort Collins-Loveland Municipal Airport KFNL 231235Z AUTO 00000KT 10SM CLR A3009 RMK AO1 Boulder Municipal Airport KBDU 231235Z AUTO 00000KT 10SM CLR 18/11 A3009 RMK AO2 Vance Brand Airport KLMO 231234Z AUTO 00000KT 5SM HZ CLR 17/12 A3010 RMK AO2 T01650116 Sterling Municipal Airport KSTK 231230Z AUTO 00000KT 10SM CLR 20/19 A3001 RMK AO2 Holyoke Airport KHEQ 231235Z AUTO 28006KT CLR 22/18 A3000 RMK AO2 PWINO COLORADO PLAINS REGIONAL KAKO 231253Z AUTO 22006KT 10SM SCT110 20/16 A3005 RMK AO2 SLP110 T02000156 Kit Carson County Airport KITR 231253Z AUTO 11003KT 10SM CLR 20/16 A3000 RMK AO2 SLP092 T02000161 $ LIMON MUNICIPAL AIRPORT KLIC 231155Z AUTO VRB03KT 10SM CLR 16/09 A3009 RMK AO2 SLP103 T01560094 10239 20156 55006 COLORADO SPRINGS MUNI KCOS 231154Z 33011KT 10SM FEW160 FEW180 SCT240 23/06 A3017 LAMAR MUNICIPAL AIRPORT KLAA 231253Z AUTO 00000KT 10SM CLR 23/14 A2995 RMK AO2 SLP079 T02280139 TSNO LA JUNTA MUNICIPAL AIRPORT KLHX 231253Z AUTO 27011KT 10SM CLR 23/11 A3000 RMK AO2 SLP082 T02330106 Trinidad, Perry Stokes Airport KTAD 111454Z AUTO 27010KT 10SM CLR 29/M02 A2994 RMK AO2 SLP031 T02941022 51005 $ PUEBLO MEMORIAL AIRPORT KPUB 231253Z 26008KT 10SM CLR 23/11 A3006 RMK AO2 SLP103 T02280106 CANON CITY 1V6 SAN LUIS VALLEY REGIONAL KALS 231252Z AUTO 00000KT 10SM CLR 14/09 A3035 RMK AO2 SLP174 T01390094 Saguache, Saguache Municipal Airport K04V 231226Z AUTO 31007KT 10SM CLR 13/07 A3039 RMK AO2 Granby-Grand County Airport KGNB WALDEN 33V Steamboat Springs KSBS 231235Z AUTO 00000KT 10SM CLR 09/07 A3031 RMK AO1 T00940071 Hayden, Yampa Valley Airport KHDN 231235Z AUTO 11008KT 10SM CLR 13/06 A3028 RMK AO1 Kremmling, Mc Elroy Airfield K20V 231235Z AUTO 00000KT 10SM CLR 08/06 A3041 RMK AO2 LEADVILLE LAKE CO KLXV 231253Z AUTO 05006KT 10SM CLR 07/04 A3052 RMK AO2 SLP182 T00670044 Eagle County Regional KEGE 231250Z 00000KT 10SM CLR 12/08 A3036 CRAIG MOFFAT AIRPORT KCAG 231253Z AUTO 00000KT 10SM CLR 12/08 A3027 RMK AO2 SLP182 T01220078 MEEKER AIRPORT KEEO 231253Z AUTO 10SM CLR 13/09 A3029 RMK AO2 SLP167 T01280089 ASPEN-PITKIN COUNTY AIRPORT KASE 231253Z AUTO 21005KT 10SM CLR 11/07 A3039 RMK AO2 SLP169 T01110072 Gunnison, Gunnison-Crested Butte Regional Airport KGUC 231235Z AUTO 00000KT 10SM CLR 08/06 A3045 RMK AO1 DURANGO-LA PLATA COUNTY AIRPORT  KDRO 231253Z AUTO 32004KT 10SM CLR 15/08 A3029 RMK AO2 SLP162 T01500083 Stevens Field Airport KPSO 231235Z AUTO 30003KT 10SM CLR 16/07 A3036 RMK AO2 T01610068 CORTEZ MONTEZUMA COUNTY AIRPORT  KCEZ 231253Z AUTO 00000KT 10SM CLR 14/08 A3024 RMK AO2 SLP158 T01440083 MONTROSE REGIONAL AIRPORT KMTJ 231253Z AUTO 12005KT 10SM CLR 16/09 A3027 RMK AO2 SLP171 T01560094 RIFLE GARFIELD COUNTY RGNL KRIL 231253Z AUTO 00000KT 10SM CLR 16/11 A3024 RMK AO2 SLP181 T01560111 GRAND JUNCTION WALKER FIELD KGJT 231253Z 12006KT 10SM CLR 20/12 A3016 RMK AO2 SLP135 T02000122 Blake Field Airport KAJZ 231235Z AUTO 04005KT 5SM HZ CLR 17/12 A3023 RMK AO2 T01660120 Central Colorado Regional Airport KAEJ 231235Z AUTO 33003KT 10SM CLR 13/07 A3038 RMK AO2 T01300065 Harriet Alexander Field Airport KANK 231235Z AUTO 30004KT 10SM CLR 15/09 A3043 RMK AO1 T01450085 Erie Municipal Airport KEIK 231235Z AUTO 00000KT 10SM CLR 15/12 A3008 RMK AO2 T01510120 Wray Municipal Airport K2V5 231215Z AUTO 20004KT 10SM CLR 21/17 A2998 RMK AO2
Legend: High Mountain AWOS Mountain Pass AWOS
Mountain Pass AWOS - Click symbol for weather report Pagosa Springs, Wolf Creek Pass KCPW 231240Z AUTO 33003KT 10SM CLR 11/01 A3071 RMK AO2 Saguache, Saguache Municipal Airport K04V 231226Z AUTO 31007KT 10SM CLR 13/07 A3039 RMK AO2 Kremmling, Mc Elroy Airfield K20V 231235Z AUTO 00000KT 10SM CLR 08/06 A3041 RMK AO2 La Veta Mountain, La Veta Pass KVTP 231229Z AUTO 19008KT 100V230 10SM CLR 11/05 A3050 RMK AO2 Salida Mountain, Monarch Pass KMYP 231234Z AUTO 33010G17KT 10SM CLR 09/02 A3078 RMK AO2 Cottonwood Pass K7BM 231235Z AUTO 27007KT 240V300 10SM CLR 16/03 A3051 RMK AO2 Elbert Mountain, Monument Pass KMNH 231238Z AUTO 25006KT 10SM CLR 16/07 A3026 RMK AO2 Wilkerson Pass K4BM 231236Z AUTO 33006KT 280V350 10SM CLR 12/01 A3063 RMK AO2 Copper Mountain, Red Cliff Pass KCCU 231236Z AUTO 27003KT 10SM CLR 12/03 A3069 RMK AO2 EMPIRE 0CO Sunlight K5SM 231232Z AUTO 00000KT 10SM CLR 15/03 A3062 RMK AO2 TSNO
Garmin Weather Avemco Insurance Company